Time;durP1;ratioP1;P1;durP2;ratioP2;P2;SDS_P1;SDS_P2;PMS_P1;PMS_P2;Temp;Humidity;BMP_temperature;BMP_pressure;BME280_temperature;BME280_humidity;BME280_pressure;Samples;Min_cycle;Max_cycle;Signal;HPM_P1;HPM_P2
2023/09/02 00:00:00;;;;;;;2.87;1.60;;;18.50;99.90;;;;;;5033003;28;20175;-71
2023/09/02 00:02:26;;;;;;;2.80;1.70;;;18.60;99.90;;;;;;5032825;28;20175;-71
2023/09/02 00:04:51;;;;;;;4.67;1.80;;;18.60;99.90;;;;;;5032191;28;20625;-71
2023/09/02 00:07:17;;;;;;;2.20;1.43;;;18.60;99.90;;;;;;5032004;28;20249;-71
2023/09/02 00:09:42;;;;;;;2.20;1.70;;;18.60;99.90;;;;;;5031931;28;20205;-71
2023/09/02 00:12:08;;;;;;;1.90;1.40;;;18.50;99.90;;;;;;5032511;28;20300;-71
2023/09/02 00:14:34;;;;;;;6.03;1.83;;;18.40;99.90;;;;;;5032308;28;20554;-71
2023/09/02 00:17:00;;;;;;;2.10;1.77;;;18.30;99.90;;;;;;5031555;28;20452;-71
2023/09/02 00:19:25;;;;;;;2.67;1.53;;;18.40;99.90;;;;;;5032038;28;20255;-71
2023/09/02 00:21:51;;;;;;;2.30;1.47;;;18.40;99.90;;;;;;5031863;28;20253;-71
2023/09/02 00:24:19;;;;;;;4.63;1.50;;;18.50;99.90;;;;;;5031656;28;20176;-71
2023/09/02 00:26:44;;;;;;;6.17;2.20;;;18.40;99.90;;;;;;5032088;28;20217;-71
2023/09/02 00:29:10;;;;;;;6.80;2.30;;;18.30;99.90;;;;;;5032070;28;20920;-72
2023/09/02 00:31:36;;;;;;;1.93;1.50;;;18.20;99.90;;;;;;5032127;28;20341;-71
2023/09/02 00:34:01;;;;;;;1.70;1.30;;;18.30;99.90;;;;;;5031859;28;20172;-71
2023/09/02 00:36:30;;;;;;;1.70;1.07;;;18.40;99.90;;;;;;5031263;28;20211;-71
2023/09/02 00:38:57;;;;;;;1.70;1.57;;;18.40;99.90;;;;;;5031821;28;20194;-71
2023/09/02 00:41:30;;;;;;;3.23;2.20;;;18.40;99.90;;;;;;5031972;28;20801;-71
2023/09/02 00:43:56;;;;;;;4.67;1.70;;;18.40;99.90;;;;;;5032083;28;20394;-71
2023/09/02 00:46:22;;;;;;;4.00;1.73;;;18.40;99.90;;;;;;5031952;28;20559;-70
2023/09/02 00:48:48;;;;;;;1.70;1.60;;;18.40;99.90;;;;;;5031495;28;20182;-70
2023/09/02 00:51:13;;;;;;;4.50;2.10;;;18.30;99.90;;;;;;5031194;28;20446;-69
2023/09/02 00:53:39;;;;;;;3.23;1.57;;;18.30;99.90;;;;;;5031370;28;20167;-70
2023/09/02 00:56:04;;;;;;;2.37;1.60;;;18.30;99.90;;;;;;5031254;28;20677;-70
2023/09/02 00:58:31;;;;;;;1.50;1.40;;;18.20;99.90;;;;;;5031364;28;20637;-72
2023/09/02 01:00:58;;;;;;;3.30;2.00;;;18.20;99.90;;;;;;5031191;28;20557;-70
2023/09/02 01:03:24;;;;;;;5.90;2.07;;;18.10;99.90;;;;;;5031360;28;20410;-71
2023/09/02 01:05:49;;;;;;;1.60;1.20;;;18.10;99.90;;;;;;5031038;28;20438;-71
2023/09/02 01:08:19;;;;;;;3.13;1.53;;;18.10;99.90;;;;;;5030465;28;20768;-71
2023/09/02 01:10:44;;;;;;;1.90;1.60;;;18.00;99.90;;;;;;5031517;28;20561;-70
2023/09/02 01:13:10;;;;;;;4.60;1.90;;;18.00;99.90;;;;;;5030665;28;20413;-70
2023/09/02 01:15:36;;;;;;;2.07;1.70;;;18.00;99.90;;;;;;5030666;28;20569;-70
2023/09/02 01:18:03;;;;;;;3.07;1.70;;;18.00;99.90;;;;;;5031110;28;20421;-71
2023/09/02 01:20:48;;;;;;;1.60;1.40;;;18.00;99.90;;;;;;5030509;28;20525;-70
2023/09/02 01:23:30;;;;;;;3.07;1.77;;;18.00;99.90;;;;;;5029950;28;20430;-70
2023/09/02 01:25:59;;;;;;;2.07;1.47;;;18.00;99.90;;;;;;5030723;28;20433;-70
2023/09/02 01:28:31;;;;;;;1.73;1.43;;;17.90;99.90;;;;;;5030522;28;20502;-70
2023/09/02 01:30:59;;;;;;;5.03;2.00;;;17.90;99.90;;;;;;5030820;28;20438;-71
2023/09/02 01:33:27;;;;;;;2.67;1.40;;;17.90;99.90;;;;;;5030590;28;20542;-70
2023/09/02 01:35:53;;;;;;;2.63;1.90;;;17.90;99.90;;;;;;5030425;28;20450;-71
2023/09/02 01:38:24;;;;;;;2.00;1.33;;;17.90;99.90;;;;;;5029514;28;20415;-71
2023/09/02 01:40:53;;;;;;;3.17;1.50;;;17.90;99.90;;;;;;5030871;28;20383;-69
2023/09/02 01:43:20;;;;;;;1.37;1.10;;;17.80;99.90;;;;;;5030469;28;20517;-70
2023/09/02 01:45:46;;;;;;;2.63;1.57;;;17.80;99.90;;;;;;5030404;28;20429;-71
2023/09/02 01:48:13;;;;;;;1.83;1.37;;;17.90;99.90;;;;;;5030729;28;20877;-71
2023/09/02 01:50:40;;;;;;;2.50;1.53;;;17.90;99.90;;;;;;5030526;28;20825;-70
2023/09/02 01:53:08;;;;;;;3.47;1.87;;;17.80;99.90;;;;;;5030188;28;20735;-70
2023/09/02 01:55:34;;;;;;;2.27;1.57;;;17.80;99.90;;;;;;5030579;28;20430;-71
2023/09/02 01:58:00;;;;;;;2.17;1.20;;;17.80;99.90;;;;;;5031257;28;20402;-72
2023/09/02 02:00:26;;;;;;;2.60;1.47;;;17.80;99.90;;;;;;5030464;28;20884;-71
2023/09/02 02:02:55;;;;;;;2.07;1.30;;;17.70;99.90;;;;;;5030481;28;20175;-71
2023/09/02 02:05:31;;;;;;;2.03;1.43;;;17.80;99.90;;;;;;5029586;28;20756;-71
2023/09/02 02:08:00;;;;;;;2.13;1.60;;;17.80;99.90;;;;;;5030199;28;20418;-70
2023/09/02 02:10:29;;;;;;;2.23;1.47;;;17.80;99.90;;;;;;5030015;28;20818;-71
2023/09/02 02:12:55;;;;;;;5.87;1.70;;;17.70;99.90;;;;;;5030481;28;20417;-70
2023/09/02 02:15:20;;;;;;;2.87;1.80;;;17.70;99.90;;;;;;5030089;28;20422;-71
2023/09/02 02:17:46;;;;;;;1.97;1.50;;;17.70;99.90;;;;;;5030257;28;20172;-70
2023/09/02 02:20:12;;;;;;;3.40;1.80;;;17.70;99.90;;;;;;5030227;28;20195;-71
2023/09/02 02:22:37;;;;;;;3.67;1.90;;;17.70;99.90;;;;;;5030024;28;20183;-71
2023/09/02 02:25:03;;;;;;;3.40;1.60;;;17.60;99.90;;;;;;5029850;28;20245;-71
2023/09/02 02:27:29;;;;;;;3.00;1.70;;;17.60;99.90;;;;;;5030214;28;20168;-71
2023/09/02 02:29:55;;;;;;;2.10;1.80;;;17.60;99.90;;;;;;5030080;28;20457;-71
2023/09/02 02:32:21;;;;;;;2.97;1.80;;;17.50;99.90;;;;;;5030039;28;20167;-71
2023/09/02 02:34:47;;;;;;;3.80;2.20;;;17.50;99.90;;;;;;5030537;28;20462;-71
2023/09/02 02:37:13;;;;;;;2.10;1.87;;;17.50;99.90;;;;;;5029685;28;20352;-70
2023/09/02 02:39:38;;;;;;;4.07;2.20;;;17.50;99.90;;;;;;5032192;28;20174;-71
2023/09/02 02:42:04;;;;;;;4.70;2.37;;;17.40;99.90;;;;;;5033481;28;20643;-71
2023/09/02 02:44:29;;;;;;;3.07;1.87;;;17.40;99.90;;;;;;5033419;28;20541;-71
2023/09/02 02:46:55;;;;;;;3.60;2.00;;;17.40;99.90;;;;;;5033372;28;20292;-70
2023/09/02 02:49:20;;;;;;;2.27;1.70;;;17.40;99.90;;;;;;5033372;28;20245;-71
2023/09/02 02:51:46;;;;;;;4.10;2.30;;;17.40;99.90;;;;;;5033207;28;20209;-71
2023/09/02 02:54:12;;;;;;;2.80;1.90;;;17.30;99.90;;;;;;5033150;28;20198;-70
2023/09/02 02:56:37;;;;;;;4.43;2.87;;;17.30;99.90;;;;;;5033051;28;20238;-71
2023/09/02 02:59:03;;;;;;;2.80;2.17;;;17.30;99.90;;;;;;5033247;28;20737;-70
2023/09/02 03:01:30;;;;;;;2.33;2.13;;;17.30;99.90;;;;;;5033399;28;20171;-70
2023/09/02 03:03:55;;;;;;;4.07;1.73;;;17.30;99.90;;;;;;5033376;28;20596;-71
2023/09/02 03:06:21;;;;;;;4.60;1.97;;;17.30;99.90;;;;;;5032974;28;20464;-70
2023/09/02 03:08:47;;;;;;;5.60;2.73;;;17.40;99.90;;;;;;5032994;28;20179;-70
2023/09/02 03:11:13;;;;;;;2.67;2.47;;;17.30;99.90;;;;;;5033222;28;20611;-70
2023/09/02 03:13:39;;;;;;;9.13;2.47;;;17.30;99.90;;;;;;5032841;28;20493;-71
2023/09/02 03:16:04;;;;;;;3.00;2.30;;;17.30;99.90;;;;;;5032892;28;20507;-70
2023/09/02 03:18:30;;;;;;;3.70;2.20;;;17.20;99.90;;;;;;5033226;28;20178;-71
2023/09/02 03:21:03;;;;;;;3.37;2.00;;;17.20;99.90;;;;;;5033246;28;20585;-70
2023/09/02 03:23:29;;;;;;;3.07;2.30;;;17.20;99.90;;;;;;5032520;28;20583;-71
2023/09/02 03:25:54;;;;;;;4.97;2.43;;;17.10;99.90;;;;;;5032858;28;20456;-70
2023/09/02 03:28:20;;;;;;;5.03;2.30;;;17.10;99.90;;;;;;5033121;28;20171;-69
2023/09/02 03:30:45;;;;;;;4.27;2.33;;;17.10;99.90;;;;;;5032676;28;20282;-71
2023/09/02 03:33:14;;;;;;;2.60;2.23;;;17.00;99.90;;;;;;5032509;28;20172;-70
2023/09/02 03:35:40;;;;;;;3.43;2.23;;;17.10;99.90;;;;;;5032864;28;20280;-71
2023/09/02 03:38:06;;;;;;;6.10;2.80;;;17.00;99.90;;;;;;5032524;28;20928;-70
2023/09/02 03:40:32;;;;;;;3.03;2.70;;;17.00;99.90;;;;;;5032137;28;20533;-71
2023/09/02 03:42:58;;;;;;;2.70;2.47;;;17.00;99.90;;;;;;5032720;28;20185;-71
2023/09/02 03:45:23;;;;;;;3.80;3.00;;;17.00;99.90;;;;;;5032247;28;20437;-71
2023/09/02 03:47:49;;;;;;;6.03;3.47;;;17.00;99.90;;;;;;5032683;28;20254;-71
2023/09/02 03:50:24;;;;;;;3.60;2.77;;;16.90;99.90;;;;;;5031561;28;20238;-71
2023/09/02 03:52:49;;;;;;;5.10;3.37;;;16.90;99.90;;;;;;5032755;28;20162;-71
2023/09/02 03:55:15;;;;;;;4.67;2.57;;;16.90;99.90;;;;;;5030489;28;20519;-71
2023/09/02 03:57:41;;;;;;;3.67;3.10;;;17.00;99.90;;;;;;5032631;28;20672;-70
2023/09/02 04:00:07;;;;;;;7.27;2.60;;;17.00;99.90;;;;;;5032254;28;20501;-70
2023/09/02 04:02:33;;;;;;;3.90;3.00;;;17.00;99.90;;;;;;5032577;28;20185;-71
2023/09/02 04:04:58;;;;;;;5.10;2.40;;;17.00;99.90;;;;;;5030703;28;20433;-71
2023/09/02 04:07:24;;;;;;;4.50;2.80;;;16.90;99.90;;;;;;5031689;28;20194;-71
2023/09/02 04:09:50;;;;;;;2.80;2.10;;;17.00;99.90;;;;;;5032070;28;20202;-71
2023/09/02 04:12:16;;;;;;;6.07;3.10;;;17.10;99.90;;;;;;5032163;28;20638;-71
2023/09/02 04:14:41;;;;;;;2.57;2.17;;;17.10;99.90;;;;;;5032152;28;20433;-70
2023/09/02 04:17:07;;;;;;;3.17;2.87;;;17.10;99.90;;;;;;5031900;28;20179;-71
2023/09/02 04:19:33;;;;;;;2.97;2.27;;;17.10;99.90;;;;;;5032244;28;20575;-72
2023/09/02 04:21:58;;;;;;;3.67;2.80;;;17.10;99.90;;;;;;5031730;28;20175;-71
2023/09/02 04:24:24;;;;;;;4.10;3.00;;;16.90;99.90;;;;;;5031624;28;20171;-72
2023/09/02 04:26:51;;;;;;;3.63;2.30;;;16.90;99.90;;;;;;5031801;28;20257;-71
2023/09/02 04:29:16;;;;;;;3.07;2.30;;;16.90;99.90;;;;;;5032070;28;20166;-70
2023/09/02 04:31:42;;;;;;;3.03;2.73;;;17.00;99.90;;;;;;5031728;28;20603;-71
2023/09/02 04:34:07;;;;;;;2.70;2.50;;;16.90;99.90;;;;;;5031714;28;20171;-71
2023/09/02 04:36:33;;;;;;;3.53;2.60;;;16.90;99.90;;;;;;5030430;28;20249;-71
2023/09/02 04:38:58;;;;;;;4.20;2.27;;;16.80;99.90;;;;;;5030099;28;20201;-70
2023/09/02 04:41:25;;;;;;;3.97;3.10;;;16.90;99.90;;;;;;5030625;28;20206;-71
2023/09/02 04:43:50;;;;;;;5.30;2.20;;;16.80;99.90;;;;;;5030461;28;20168;-71
2023/09/02 04:46:16;;;;;;;6.00;3.03;;;16.80;99.90;;;;;;5030389;28;20460;-71
2023/09/02 04:48:42;;;;;;;3.90;2.47;;;16.70;99.90;;;;;;5030469;28;20175;-71
2023/09/02 04:51:08;;;;;;;6.87;4.50;;;16.70;99.90;;;;;;5030413;28;20202;-70
2023/09/02 04:53:33;;;;;;;5.60;3.57;;;16.80;99.90;;;;;;5030469;28;20186;-71
2023/09/02 04:56:00;;;;;;;2.47;2.20;;;16.80;99.90;;;;;;5029905;28;20915;-70
2023/09/02 04:58:27;;;;;;;2.40;2.20;;;16.80;99.90;;;;;;5030609;28;20216;-71
2023/09/02 05:00:53;;;;;;;2.50;2.13;;;16.90;99.90;;;;;;5031073;28;20502;-71
2023/09/02 05:03:18;;;;;;;5.63;3.20;;;16.90;99.90;;;;;;5030991;28;20815;-72
2023/09/02 05:05:44;;;;;;;4.10;3.20;;;16.90;99.90;;;;;;5029889;28;20279;-71
2023/09/02 05:08:09;;;;;;;2.93;2.23;;;16.90;99.90;;;;;;5029983;28;20189;-72
2023/09/02 05:10:35;;;;;;;3.93;2.23;;;16.90;99.90;;;;;;5029893;28;20196;-71
2023/09/02 05:13:00;;;;;;;3.53;2.83;;;17.00;99.90;;;;;;5029759;28;20202;-71
2023/09/02 05:15:26;;;;;;;5.43;2.30;;;17.10;99.90;;;;;;5029984;28;20250;-70
2023/09/02 05:17:52;;;;;;;5.27;2.70;;;17.00;99.90;;;;;;5030340;28;20179;-70
2023/09/02 05:20:18;;;;;;;2.80;2.27;;;17.10;99.90;;;;;;5029982;28;20206;-71
2023/09/02 05:22:44;;;;;;;3.80;2.10;;;17.10;99.90;;;;;;5029958;28;20816;-70
2023/09/02 05:25:10;;;;;;;3.57;3.10;;;17.10;99.90;;;;;;5029746;28;20787;-71
2023/09/02 05:27:38;;;;;;;3.33;2.10;;;17.00;99.90;;;;;;5030090;28;20584;-70
2023/09/02 05:30:05;;;;;;;4.50;2.60;;;17.00;99.90;;;;;;5029833;28;20245;-70
2023/09/02 05:32:30;;;;;;;3.40;2.00;;;17.00;99.90;;;;;;5030386;28;20435;-71
2023/09/02 05:34:56;;;;;;;4.40;2.97;;;17.10;99.90;;;;;;4992894;28;1075871;-72
2023/09/02 05:37:22;;;;;;;4.10;2.90;;;17.20;99.90;;;;;;5030131;28;20568;-72
2023/09/02 05:39:47;;;;;;;3.63;3.03;;;17.30;99.90;;;;;;5030552;28;20207;-71
2023/09/02 05:42:13;;;;;;;2.80;2.50;;;17.30;99.90;;;;;;5030423;28;20428;-71
2023/09/02 05:44:38;;;;;;;3.50;2.83;;;17.30;99.90;;;;;;5030886;28;20241;-72
2023/09/02 05:47:04;;;;;;;3.77;3.00;;;17.30;99.90;;;;;;5030824;28;20494;-72
2023/09/02 05:49:30;;;;;;;4.40;2.40;;;17.30;99.90;;;;;;5030834;28;20641;-72
2023/09/02 05:51:55;;;;;;;2.33;2.10;;;17.40;99.90;;;;;;5030233;28;20171;-71
2023/09/02 05:54:21;;;;;;;2.97;2.67;;;17.40;99.90;;;;;;5030337;28;20187;-71
2023/09/02 05:56:47;;;;;;;2.70;2.33;;;17.50;99.90;;;;;;5030526;28;20219;-71
2023/09/02 05:59:13;;;;;;;2.80;2.43;;;17.50;99.90;;;;;;5029305;28;20186;-71
2023/09/02 06:01:39;;;;;;;3.33;2.23;;;17.60;99.90;;;;;;5030490;28;20168;-70
2023/09/02 06:04:05;;;;;;;3.00;2.70;;;17.60;99.90;;;;;;5030622;28;20530;-71
2023/09/02 06:06:30;;;;;;;3.40;2.17;;;17.70;99.90;;;;;;5030047;28;20692;-71
2023/09/02 06:08:56;;;;;;;2.60;2.17;;;17.80;99.90;;;;;;5030248;28;20165;-72
2023/09/02 06:11:21;;;;;;;2.30;2.10;;;17.90;99.90;;;;;;5030310;28;20266;-71
2023/09/02 06:13:47;;;;;;;5.40;2.90;;;18.00;99.90;;;;;;5032127;28;20175;-71
2023/09/02 06:16:12;;;;;;;3.70;2.63;;;18.10;99.90;;;;;;5032785;28;20183;-71
2023/09/02 06:18:38;;;;;;;3.53;2.60;;;18.10;99.90;;;;;;5034207;28;20189;-71
2023/09/02 06:21:14;;;;;;;5.10;2.90;;;18.10;99.90;;;;;;5033451;28;20548;-70
2023/09/02 06:23:44;;;;;;;3.23;2.80;;;18.20;99.90;;;;;;5032929;28;20201;-71
2023/09/02 06:26:11;;;;;;;3.07;2.30;;;18.30;99.90;;;;;;5034048;28;20433;-72
2023/09/02 06:28:37;;;;;;;4.80;3.00;;;18.30;99.90;;;;;;5034351;28;20406;-71
2023/09/02 06:31:10;;;;;;;3.70;2.60;;;18.50;99.90;;;;;;5034056;28;20461;-71
2023/09/02 06:33:36;;;;;;;2.67;2.23;;;18.60;99.90;;;;;;5034324;28;20179;-70
2023/09/02 06:36:16;;;;;;;3.30;2.07;;;18.70;99.90;;;;;;5033571;28;20800;-70
2023/09/02 06:38:42;;;;;;;2.40;2.20;;;18.80;99.90;;;;;;5034158;28;20505;-71
2023/09/02 06:41:09;;;;;;;2.43;2.23;;;18.90;99.90;;;;;;5033610;28;20489;-71
2023/09/02 06:43:35;;;;;;;6.03;2.67;;;19.00;99.90;;;;;;5033871;28;20417;-71
2023/09/02 06:46:08;;;;;;;2.90;2.50;;;19.10;99.90;;;;;;5033941;28;20440;-70
2023/09/02 06:48:34;;;;;;;3.30;2.73;;;19.20;99.90;;;;;;5034591;28;20242;-70
2023/09/02 06:50:59;;;;;;;2.57;2.30;;;19.30;99.90;;;;;;5033793;28;20537;-71
2023/09/02 06:53:25;;;;;;;3.00;2.47;;;19.40;99.90;;;;;;5033643;28;20237;-70
2023/09/02 06:55:50;;;;;;;2.97;2.67;;;19.50;99.90;;;;;;5033177;28;20533;-71
2023/09/02 06:58:16;;;;;;;3.10;2.60;;;19.60;99.90;;;;;;5033332;28;20178;-72
2023/09/02 07:00:41;;;;;;;3.90;2.77;;;19.70;99.90;;;;;;5033277;28;20172;-72
2023/09/02 07:03:07;;;;;;;3.80;2.67;;;19.70;99.90;;;;;;5033618;28;20212;-70
2023/09/02 07:05:32;;;;;;;6.50;3.13;;;19.80;99.90;;;;;;5033224;28;20195;-71
2023/09/02 07:07:59;;;;;;;3.53;2.40;;;19.90;99.90;;;;;;5031649;28;20221;-71
2023/09/02 07:10:25;;;;;;;3.67;2.83;;;20.00;99.90;;;;;;5032762;28;20198;-70
2023/09/02 07:12:52;;;;;;;4.10;3.00;;;20.10;99.90;;;;;;5033043;28;20422;-70
2023/09/02 07:15:18;;;;;;;3.60;2.57;;;20.20;99.90;;;;;;5032308;28;20245;-70
2023/09/02 07:17:43;;;;;;;2.63;2.43;;;20.30;99.90;;;;;;5033188;28;20795;-70
2023/09/02 07:20:10;;;;;;;3.10;2.60;;;20.40;99.90;;;;;;5033022;28;20247;-71
2023/09/02 07:22:35;;;;;;;4.50;2.27;;;20.60;99.90;;;;;;5032920;28;20184;-70
2023/09/02 07:25:01;;;;;;;4.47;3.53;;;20.80;99.90;;;;;;5031623;28;20480;-70
2023/09/02 07:27:26;;;;;;;3.30;2.80;;;20.90;99.90;;;;;;5033047;28;20183;-72
2023/09/02 07:29:52;;;;;;;3.17;2.87;;;21.00;99.90;;;;;;5031405;28;20184;-70
2023/09/02 07:32:17;;;;;;;3.63;2.60;;;21.00;99.90;;;;;;5032351;28;20341;-71
2023/09/02 07:34:43;;;;;;;2.73;2.23;;;21.20;99.90;;;;;;5032652;28;20258;-71
2023/09/02 07:37:09;;;;;;;3.97;2.73;;;21.10;99.90;;;;;;5032524;28;20171;-70
2023/09/02 07:39:34;;;;;;;2.80;2.40;;;21.10;99.90;;;;;;5031776;28;20252;-71
2023/09/02 07:42:00;;;;;;;4.70;2.80;;;20.90;99.90;;;;;;5032561;28;20418;-70
2023/09/02 07:44:25;;;;;;;3.27;2.97;;;20.80;99.90;;;;;;5032560;28;20727;-71
2023/09/02 07:46:51;;;;;;;3.30;2.83;;;20.90;99.90;;;;;;5032903;28;20196;-70
2023/09/02 07:49:17;;;;;;;3.60;2.17;;;21.20;99.90;;;;;;5032607;28;20532;-70
2023/09/02 07:51:44;;;;;;;3.57;2.40;;;21.60;99.90;;;;;;5032532;28;20192;-70
2023/09/02 07:54:09;;;;;;;6.97;3.50;;;21.90;99.90;;;;;;5032667;28;20164;-70
2023/09/02 07:56:35;;;;;;;3.83;3.00;;;22.00;99.90;;;;;;5032017;28;20426;-70
2023/09/02 07:59:00;;;;;;;2.60;2.40;;;22.30;99.90;;;;;;5032186;28;20511;-70
2023/09/02 08:01:27;;;;;;;3.10;2.40;;;22.20;99.90;;;;;;5032111;28;20660;-70
2023/09/02 08:03:52;;;;;;;2.63;2.37;;;22.40;99.90;;;;;;5032456;28;20583;-69
2023/09/02 08:06:18;;;;;;;4.23;2.10;;;22.30;99.90;;;;;;5025106;28;20491;-71
2023/09/02 08:08:43;;;;;;;3.27;2.60;;;22.60;99.90;;;;;;5022709;28;20187;-70
2023/09/02 08:11:10;;;;;;;3.57;2.40;;;22.70;99.90;;;;;;5022144;28;20202;-69
2023/09/02 08:13:36;;;;;;;3.57;2.87;;;23.00;99.90;;;;;;5022530;28;20254;-71
2023/09/02 08:16:07;;;;;;;4.80;2.93;;;23.10;99.90;;;;;;5022100;28;20464;-70
2023/09/02 08:18:34;;;;;;;3.20;2.70;;;23.20;99.90;;;;;;5022492;28;20605;-71
2023/09/02 08:20:59;;;;;;;2.90;2.47;;;23.40;99.90;;;;;;5022318;28;20444;-72
2023/09/02 08:23:25;;;;;;;3.30;2.50;;;23.50;99.90;;;;;;5022575;28;20513;-70
2023/09/02 08:25:50;;;;;;;4.57;2.63;;;23.60;99.90;;;;;;5022276;28;20210;-71
2023/09/02 08:28:16;;;;;;;3.60;2.73;;;23.70;99.90;;;;;;5026069;28;20186;-70
2023/09/02 08:30:43;;;;;;;3.20;2.10;;;23.80;99.90;;;;;;5030478;28;20429;-71
2023/09/02 08:33:08;;;;;;;3.40;2.17;;;24.10;99.90;;;;;;5031460;28;20163;-70
2023/09/02 08:35:37;;;;;;;2.90;2.20;;;24.10;99.90;;;;;;5031701;28;20553;-69
2023/09/02 08:38:04;;;;;;;3.43;2.17;;;24.00;99.90;;;;;;5030088;28;20650;-72
2023/09/02 08:40:29;;;;;;;4.33;2.70;;;23.60;99.90;;;;;;5030927;28;20430;-71
2023/09/02 08:42:55;;;;;;;6.13;4.60;;;23.30;99.90;;;;;;5031305;28;20454;-72
2023/09/02 08:45:22;;;;;;;6.30;2.77;;;23.10;99.90;;;;;;5031416;28;20718;-72
2023/09/02 08:47:57;;;;;;;2.70;2.40;;;22.90;99.90;;;;;;5031179;28;20238;-71
2023/09/02 08:50:25;;;;;;;3.57;2.63;;;22.70;99.90;;;;;;5031243;28;20871;-70
2023/09/02 08:52:52;;;;;;;2.90;2.60;;;22.60;99.90;;;;;;5030890;28;20514;-70
2023/09/02 08:55:18;;;;;;;4.57;2.67;;;22.60;99.90;;;;;;5031156;28;20937;-70
2023/09/02 08:57:44;;;;;;;3.47;2.40;;;22.80;99.90;;;;;;5031076;28;20916;-71
2023/09/02 09:00:10;;;;;;;2.73;2.53;;;23.10;99.90;;;;;;5031083;28;20406;-71
2023/09/02 09:02:38;;;;;;;3.43;2.83;;;23.30;99.90;;;;;;5031194;28;20406;-71
2023/09/02 09:05:05;;;;;;;3.23;2.57;;;23.10;99.90;;;;;;5031218;28;20661;-71
2023/09/02 09:07:31;;;;;;;3.00;2.20;;;23.20;99.90;;;;;;5031055;28;20410;-70
2023/09/02 09:09:59;;;;;;;3.37;2.87;;;23.20;99.90;;;;;;5031495;28;20406;-71
2023/09/02 09:12:28;;;;;;;5.60;2.53;;;23.20;99.90;;;;;;5030917;28;20839;-71
2023/09/02 09:14:54;;;;;;;3.50;2.73;;;23.20;99.90;;;;;;5030836;28;20849;-71
2023/09/02 09:17:20;;;;;;;3.20;2.57;;;23.20;99.90;;;;;;5031303;28;20405;-71
2023/09/02 09:19:46;;;;;;;4.10;2.80;;;23.30;99.90;;;;;;5031128;28;20406;-71
2023/09/02 09:22:12;;;;;;;4.60;2.60;;;23.50;99.90;;;;;;5030651;28;20619;-71
2023/09/02 09:24:37;;;;;;;3.17;2.40;;;23.90;99.90;;;;;;5030707;28;20454;-71
2023/09/02 09:27:05;;;;;;;3.07;2.77;;;24.00;99.90;;;;;;5030926;28;20176;-70
2023/09/02 09:29:41;;;;;;;3.20;2.53;;;24.10;99.90;;;;;;5031295;28;20544;-71
2023/09/02 09:32:12;;;;;;;3.30;2.77;;;24.30;99.90;;;;;;5030586;28;20444;-72
2023/09/02 09:34:40;;;;;;;3.03;1.90;;;24.40;99.90;;;;;;5031062;28;20438;-72
2023/09/02 09:37:06;;;;;;;1.77;1.60;;;24.60;99.90;;;;;;5030928;28;20398;-71
2023/09/02 09:39:47;;;;;;;2.40;2.07;;;24.80;99.90;;;;;;5029531;28;20406;-72
2023/09/02 09:42:17;;;;;;;3.97;1.80;;;24.90;99.90;;;;;;5030591;28;20410;-70
2023/09/02 09:44:57;;;;;;;2.30;1.90;;;24.80;99.90;;;;;;5030324;28;20457;-72
2023/09/02 09:47:25;;;;;;;3.00;2.20;;;24.70;99.90;;;;;;5030441;28;20390;-71
2023/09/02 09:49:51;;;;;;;2.97;1.73;;;24.80;99.90;;;;;;5029997;28;20768;-72
2023/09/02 09:52:18;;;;;;;2.80;1.87;;;25.10;99.90;;;;;;5030278;28;20556;-71
2023/09/02 09:54:52;;;;;;;2.00;1.80;;;25.20;99.90;;;;;;5030529;28;20799;-72
2023/09/02 09:57:29;;;;;;;2.57;2.00;;;25.30;99.90;;;;;;5030870;28;20852;-72
2023/09/02 09:59:55;;;;;;;2.87;2.03;;;25.50;99.90;;;;;;5030456;28;20413;-72
2023/09/02 10:02:22;;;;;;;2.43;2.23;;;25.60;99.90;;;;;;5030528;28;20410;-72
2023/09/02 10:04:54;;;;;;;2.10;1.70;;;25.50;99.90;;;;;;5030404;28;20436;-72
2023/09/02 10:07:25;;;;;;;6.30;2.90;;;25.60;99.90;;;;;;5030420;28;20420;-71
2023/09/02 10:09:54;;;;;;;6.67;2.83;;;25.60;99.90;;;;;;5030339;28;20393;-71
2023/09/02 10:12:21;;;;;;;2.80;2.50;;;25.80;99.90;;;;;;5030471;28;20425;-72
2023/09/02 10:14:47;;;;;;;4.37;2.10;;;25.90;99.90;;;;;;5030402;28;20798;-72
2023/09/02 10:17:14;;;;;;;2.17;1.83;;;25.90;99.90;;;;;;5030567;28;20712;-72
2023/09/02 10:19:40;;;;;;;1.90;1.40;;;25.80;99.90;;;;;;5030694;28;20398;-72
2023/09/02 10:22:06;;;;;;;1.77;1.63;;;26.00;99.90;;;;;;5030394;28;20410;-72
2023/09/02 10:24:34;;;;;;;3.23;1.83;;;26.20;99.90;;;;;;5030665;28;20489;-72
2023/09/02 10:27:06;;;;;;;1.77;1.60;;;26.30;99.90;;;;;;5030521;28;20410;-72
2023/09/02 10:29:42;;;;;;;3.10;1.83;;;26.50;99.90;;;;;;5030885;28;20386;-72
2023/09/02 10:32:12;;;;;;;2.53;1.73;;;26.50;99.90;;;;;;5030730;28;20402;-72
2023/09/02 10:34:56;;;;;;;2.60;1.90;;;26.60;99.90;;;;;;5028696;28;20563;-72
2023/09/02 10:37:27;;;;;;;2.13;1.63;;;26.50;99.90;;;;;;5029849;28;20511;-72
2023/09/02 10:40:04;;;;;;;2.77;1.70;;;26.30;99.90;;;;;;5029891;28;20397;-72
2023/09/02 10:42:30;;;;;;;2.50;1.90;;;26.30;99.90;;;;;;5030323;28;20740;-72
2023/09/02 10:44:56;;;;;;;2.53;1.70;;;26.20;99.90;;;;;;5030235;28;20452;-72
2023/09/02 10:47:21;;;;;;;2.50;2.07;;;26.40;99.90;;;;;;5030087;28;20411;-72
2023/09/02 10:49:48;;;;;;;2.53;1.60;;;27.40;99.90;;;;;;5030274;28;20426;-71
2023/09/02 10:52:15;;;;;;;2.40;1.37;;;29.60;99.40;;;;;;5029929;28;20175;-73
2023/09/02 10:55:03;;;;;;;2.47;1.60;;;31.50;96.30;;;;;;5031003;28;20430;-72
2023/09/02 10:57:42;;;;;;;2.83;1.30;;;32.60;91.40;;;;;;5030186;28;20962;-72
2023/09/02 11:00:11;;;;;;;2.53;1.73;;;32.30;90.00;;;;;;5031747;28;20410;-73
2023/09/02 11:02:42;;;;;;;4.00;1.57;;;31.30;91.50;;;;;;5033580;28;21072;-72
2023/09/02 11:05:08;;;;;;;2.37;1.73;;;30.40;92.60;;;;;;5033258;28;20517;-72
2023/09/02 11:07:34;;;;;;;3.10;1.87;;;29.60;92.70;;;;;;5033648;28;20429;-72
2023/09/02 11:10:01;;;;;;;2.37;1.70;;;30.30;92.10;;;;;;5031682;28;20976;-71
2023/09/02 11:12:27;;;;;;;2.70;1.70;;;32.10;90.10;;;;;;5033374;28;20187;-72
2023/09/02 11:15:08;;;;;;;2.77;1.80;;;33.20;86.50;;;;;;5033596;28;20426;-73
2023/09/02 11:17:41;;;;;;;2.83;1.93;;;34.40;81.70;;;;;;5014048;28;20915;-73
2023/09/02 11:20:11;;;;;;;2.20;1.80;;;35.50;75.60;;;;;;5013847;28;20421;-73
2023/09/02 11:23:01;;;;;;;2.67;1.70;;;35.60;75.50;;;;;;5013451;28;20462;-72
2023/09/02 11:25:30;;;;;;;2.00;1.20;;;34.80;73.70;;;;;;5027717;28;20433;-73
2023/09/02 11:27:58;;;;;;;2.70;1.53;;;33.60;76.70;;;;;;5033293;28;20398;-72
2023/09/02 11:30:25;;;;;;;3.27;1.70;;;34.30;77.10;;;;;;5032970;28;20647;-72
2023/09/02 11:32:51;;;;;;;2.20;1.50;;;34.00;76.40;;;;;;5032800;28;20485;-72
2023/09/02 11:35:25;;;;;;;2.00;1.50;;;34.50;78.80;;;;;;5032686;28;20984;-72
2023/09/02 11:37:51;;;;;;;1.97;1.60;;;34.80;76.30;;;;;;5032203;28;20410;-73
2023/09/02 11:40:18;;;;;;;1.70;1.60;;;32.90;77.00;;;;;;5032515;28;20821;-72
2023/09/02 11:42:51;;;;;;;1.70;1.60;;;33.00;79.00;;;;;;5032827;28;20195;-72
2023/09/02 11:45:17;;;;;;;2.13;1.80;;;34.60;78.00;;;;;;5032846;28;20414;-73
2023/09/02 11:47:44;;;;;;;1.73;1.63;;;36.70;73.00;;;;;;5031358;28;20418;-72
2023/09/02 11:50:17;;;;;;;2.60;1.80;;;37.60;66.70;;;;;;5032497;28;20887;-72
2023/09/02 11:52:43;;;;;;;2.47;1.30;;;37.90;65.10;;;;;;5032445;28;20394;-73
2023/09/02 11:55:14;;;;;;;2.20;1.70;;;38.50;65.00;;;;;;5032242;28;20513;-72
2023/09/02 11:57:40;;;;;;;3.70;1.67;;;38.20;60.70;;;;;;5012643;28;20387;-72
2023/09/02 12:00:10;;;;;;;2.73;1.80;;;37.80;63.70;;;;;;5012856;28;20464;-73
2023/09/02 12:02:36;;;;;;;2.30;1.57;;;37.90;61.30;;;;;;5013059;28;20560;-72
2023/09/02 12:05:05;;;;;;;2.13;1.63;;;37.00;61.00;;;;;;5012686;28;20941;-73
2023/09/02 12:07:34;;;;;;;2.30;2.10;;;35.20;65.60;;;;;;5031252;28;20433;-73
2023/09/02 12:10:14;;;;;;;2.90;1.97;;;36.50;66.90;;;;;;5031667;28;20414;-73
2023/09/02 12:12:43;;;;;;;3.33;1.97;;;36.70;61.10;;;;;;5031756;28;20382;-73
2023/09/02 12:15:19;;;;;;;3.40;1.93;;;36.80;61.20;;;;;;5032428;28;20434;-73
2023/09/02 12:17:46;;;;;;;2.07;1.57;;;34.50;64.60;;;;;;5012486;28;20414;-74
2023/09/02 12:20:14;;;;;;;2.23;1.70;;;32.80;68.40;;;;;;5013397;28;20906;-73
2023/09/02 12:22:42;;;;;;;1.50;1.30;;;31.10;72.70;;;;;;5012393;28;20753;-73
2023/09/02 12:25:21;;;;;;;2.43;1.73;;;30.70;75.60;;;;;;5012045;28;20892;-73
2023/09/02 12:27:47;;;;;;;3.10;1.90;;;31.20;77.10;;;;;;5012819;28;20957;-73
2023/09/02 12:30:23;;;;;;;2.33;1.70;;;32.70;73.20;;;;;;5012307;28;20451;-73
2023/09/02 12:32:49;;;;;;;2.20;1.60;;;34.10;71.80;;;;;;5012994;28;20390;-73
2023/09/02 12:35:14;;;;;;;3.30;1.80;;;36.00;64.90;;;;;;5012135;28;20537;-74
2023/09/02 12:37:40;;;;;;;2.40;1.80;;;37.40;61.30;;;;;;5032004;28;20539;-73
2023/09/02 12:40:14;;;;;;;1.90;1.57;;;36.10;62.80;;;;;;5032031;28;20202;-74
2023/09/02 12:42:40;;;;;;;1.97;1.50;;;37.40;61.70;;;;;;5032341;28;20174;-74
2023/09/02 12:45:08;;;;;;;1.87;1.70;;;36.70;60.70;;;;;;5032701;28;20489;-74
2023/09/02 12:47:34;;;;;;;2.20;1.90;;;34.90;64.70;;;;;;5032284;28;20417;-73